KSTP/STP METAR and TAF weather

Enter ICAO airport designator
Station Type Date Time Source
KSTP METAR 2019/04/24 15:53 UTC NOAA

KSTP 241553Z 19015G23KT 10SM CLR 17/04 A2986 RMK AO2 PK WND 16028/1454 SLP109 T01720044


Station Type Date Time Source
KSTP Decoded METAR 2019/04/24 15:53 UTC NOAA

DOWNTOWN HOLMAN FIELD, MN, United States (KSTP) 44-56N 093-03W 219M
Apr 24, 2019 - 11:53 AM EDT / 2019.04.24 1553 UTC
Wind: from the S (190 degrees) at 17 MPH (15 KT) gusting to 26 MPH (23 KT):0
Visibility: 10 mile(s):0
Sky conditions: clear
Temperature: 63.0 F (17.2 C)
Dew Point: 39.9 F (4.4 C)
Relative Humidity: 42%
Pressure (altimeter): 29.86 in. Hg (1011 hPa)
ob: KSTP 241553Z 19015G23KT 10SM CLR 17/04 A2986 RMK AO2 PK WND 16028/1454 SLP109 T01720044
cycle: 16

Station Type Date Time Source
KSTP TAF 2018/02/05 20:57 UTC NOAA

TAF
AMD KSTP 051957Z 0520/0618 25007KT P6SM VCSH BKN020 OVC050
TEMPO 0520/0522 SCT020
FM052200 26006KT P6SM FEW020 BKN110
FM060100 31006KT P6SM FEW100
AMD NOT SKED

Example: see airport list